createdAt,value
2018-10-16T00:00:42.566Z,100991.09
2018-10-16T00:03:12.424Z,100999.20
2018-10-16T00:05:42.093Z,100990.84
2018-10-16T00:08:11.832Z,100991.20
2018-10-16T00:10:45.269Z,100993.55
2018-10-16T00:13:15.341Z,100994.80
2018-10-16T00:15:45.058Z,100998.31
2018-10-16T00:18:18.157Z,100995.30
2018-10-16T00:20:48.493Z,100994.50
2018-10-16T00:23:18.205Z,100994.55
2018-10-16T00:25:47.991Z,100993.80
2018-10-16T00:28:17.801Z,100995.04
2018-10-16T00:30:47.747Z,100995.86
2018-10-16T00:33:17.502Z,101000.02
2018-10-16T00:35:47.355Z,101005.58
2018-10-16T00:38:17.151Z,101002.98
2018-10-16T00:40:46.876Z,101004.20
2018-10-16T00:43:16.617Z,101009.89
2018-10-16T00:45:46.366Z,101019.79
2018-10-16T00:48:16.166Z,101014.15
2018-10-16T00:50:46.008Z,101021.16
2018-10-16T00:53:15.769Z,101016.83
2018-10-16T00:55:45.534Z,101018.83
2018-10-16T00:58:15.313Z,101025.31
2018-10-16T01:00:45.066Z,101025.55
2018-10-16T01:03:14.810Z,101029.31
2018-10-16T01:05:44.825Z,101036.48
2018-10-16T01:08:14.603Z,101041.60
2018-10-16T01:10:44.336Z,101038.44
2018-10-16T01:13:14.125Z,101043.50
2018-10-16T01:15:43.810Z,101044.73
2018-10-16T01:18:13.550Z,101048.06
2018-10-16T01:20:43.503Z,101052.74
2018-10-16T01:23:13.313Z,101048.11
2018-10-16T01:25:43.134Z,101048.91
2018-10-16T01:28:12.869Z,101053.15
2018-10-16T01:30:42.621Z,101058.72
2018-10-16T01:33:12.612Z,101058.28
2018-10-16T01:35:42.342Z,101057.35
2018-10-16T01:38:12.057Z,101056.64
2018-10-16T01:40:41.760Z,101059.45
2018-10-16T01:43:11.556Z,101055.61
2018-10-16T01:45:41.285Z,101062.11
2018-10-16T01:48:11.005Z,101057.58
2018-10-16T01:50:40.896Z,101055.62
2018-10-16T01:53:10.613Z,101052.95
2018-10-16T01:55:40.402Z,101050.69
2018-10-16T01:58:10.090Z,101053.80
2018-10-16T02:00:39.882Z,101056.26
2018-10-16T02:03:09.613Z,101059.64
2018-10-16T02:05:39.432Z,101054.80
2018-10-16T02:08:09.868Z,101057.82
2018-10-16T02:10:39.661Z,101058.27
2018-10-16T02:13:09.408Z,101063.94
2018-10-16T02:15:39.120Z,101058.20
2018-10-16T02:18:08.923Z,101063.72
2018-10-16T02:20:38.644Z,101066.75
2018-10-16T02:23:08.538Z,101067.17
2018-10-16T02:25:38.304Z,101069.72
2018-10-16T02:28:08.162Z,101070.13
2018-10-16T02:30:37.908Z,101065.25
2018-10-16T02:33:07.866Z,101069.08
2018-10-16T02:35:37.638Z,101064.83
2018-10-16T02:38:07.426Z,101065.70
2018-10-16T02:40:37.504Z,101066.64
2018-10-16T02:43:07.666Z,101064.19
2018-10-16T02:45:37.407Z,101064.14
2018-10-16T02:48:07.314Z,101064.42
2018-10-16T02:50:37.023Z,101064.61
2018-10-16T02:53:06.859Z,101063.22
2018-10-16T02:55:36.626Z,101070.47
2018-10-16T02:58:06.961Z,101065.87
2018-10-16T03:00:36.736Z,101069.23
2018-10-16T03:03:06.711Z,101065.39
2018-10-16T03:05:36.495Z,101069.98
2018-10-16T03:08:06.711Z,101071.72
2018-10-16T03:10:36.536Z,101077.27
2018-10-16T03:13:06.415Z,101065.44
2018-10-16T03:15:36.253Z,101073.95
2018-10-16T03:18:06.072Z,101072.05
2018-10-16T03:20:35.797Z,101080.63
2018-10-16T03:23:05.469Z,101075.75
2018-10-16T03:25:35.175Z,101084.47
2018-10-16T03:28:04.961Z,101081.81
2018-10-16T03:30:34.750Z,101080.36
2018-10-16T03:33:05.486Z,101083.01
2018-10-16T03:35:35.262Z,101077.77
2018-10-16T03:38:04.944Z,101077.53
2018-10-16T03:40:34.688Z,101079.83
2018-10-16T03:43:04.439Z,101085.30
2018-10-16T03:45:34.277Z,101087.89
2018-10-16T03:48:04.041Z,101089.64
2018-10-16T03:50:33.742Z,101088.02
2018-10-16T03:53:03.711Z,101094.29
2018-10-16T03:55:33.419Z,101090.20
2018-10-16T03:58:03.110Z,101099.16
2018-10-16T04:00:32.862Z,101097.07
2018-10-16T04:03:02.587Z,101102.94
2018-10-16T04:05:32.285Z,101101.20
2018-10-16T04:08:02.053Z,101100.68
2018-10-16T04:10:31.856Z,101101.33
2018-10-16T04:13:01.525Z,101094.81
2018-10-16T04:15:31.283Z,101101.77
2018-10-16T04:18:01.050Z,101103.06
2018-10-16T04:20:30.792Z,101108.80
2018-10-16T04:23:00.715Z,101109.84
2018-10-16T04:25:30.449Z,101107.45
2018-10-16T04:28:00.221Z,101103.32
2018-10-16T04:30:29.986Z,101105.81
2018-10-16T04:32:59.769Z,101109.22
2018-10-16T04:35:29.684Z,101106.02
2018-10-16T04:37:59.513Z,101107.72
2018-10-16T04:40:29.289Z,101107.51
2018-10-16T04:42:58.955Z,101108.28
2018-10-16T04:45:28.892Z,101117.80
2018-10-16T04:47:58.644Z,101119.53
2018-10-16T04:50:28.351Z,101118.28
2018-10-16T04:52:58.084Z,101120.92
2018-10-16T04:55:27.822Z,101125.97
2018-10-16T04:57:57.569Z,101123.75
2018-10-16T05:00:28.816Z,101122.10
2018-10-16T05:03:01.074Z,101124.67
2018-10-16T05:05:30.856Z,101122.45
2018-10-16T05:08:00.545Z,101118.06
2018-10-16T05:10:30.410Z,101120.10
2018-10-16T05:13:00.193Z,101122.61
2018-10-16T05:15:32.332Z,101121.61
2018-10-16T05:18:02.595Z,101130.20
2018-10-16T05:20:32.370Z,101130.95
2018-10-16T05:23:03.293Z,101134.33
2018-10-16T05:25:33.110Z,101132.48
2018-10-16T05:28:08.080Z,101134.52
2018-10-16T05:30:37.933Z,101134.83
2018-10-16T05:33:14.135Z,101136.06
2018-10-16T05:35:49.467Z,101146.70
2018-10-16T05:38:19.306Z,101146.13
2018-10-16T05:40:49.037Z,101143.95
2018-10-16T05:43:24.691Z,101151.23
2018-10-16T05:45:55.117Z,101153.80
2018-10-16T05:48:24.910Z,101159.95
2018-10-16T05:50:54.658Z,101165.17
2018-10-16T05:53:24.433Z,101158.95
2018-10-16T05:56:03.781Z,101158.31
2018-10-16T05:58:36.141Z,101156.96
2018-10-16T06:01:06.038Z,101157.06
2018-10-16T06:03:35.718Z,101156.41
2018-10-16T06:06:08.353Z,101163.69
2018-10-16T06:08:39.890Z,101162.77
2018-10-16T06:11:09.886Z,101158.03
2018-10-16T06:13:39.776Z,101164.46
2018-10-16T06:16:09.789Z,101168.79
2018-10-16T06:18:39.555Z,101169.61
2018-10-16T06:21:10.229Z,101176.06
2018-10-16T06:23:40.019Z,101182.09
2018-10-16T06:26:11.853Z,101186.34
2018-10-16T06:28:42.349Z,101190.55
2018-10-16T06:31:12.063Z,101195.64
2018-10-16T06:33:42.288Z,101199.86
2018-10-16T06:36:12.075Z,101193.72
2018-10-16T06:38:41.868Z,101196.69
2018-10-16T06:41:11.702Z,101193.78
2018-10-16T06:43:41.510Z,101193.73
2018-10-16T06:46:11.193Z,101203.28
2018-10-16T06:48:41.231Z,101199.93
2018-10-16T06:51:11.064Z,101199.17
2018-10-16T06:53:40.820Z,101198.36
2018-10-16T06:56:10.533Z,101203.73
2018-10-16T06:58:40.256Z,101196.16
2018-10-16T07:01:09.985Z,101200.44
2018-10-16T07:03:39.868Z,101199.45
2018-10-16T07:06:09.690Z,101206.63
2018-10-16T07:08:39.461Z,101206.45
2018-10-16T07:11:09.174Z,101215.23
2018-10-16T07:13:38.930Z,101214.09
2018-10-16T07:16:08.706Z,101213.44
2018-10-16T07:18:38.454Z,101217.42
2018-10-16T07:21:08.442Z,101218.66
2018-10-16T07:23:38.358Z,101223.88
2018-10-16T07:26:07.971Z,101221.31
2018-10-16T07:28:38.222Z,101215.72
2018-10-16T07:31:08.059Z,101217.09
2018-10-16T07:33:37.913Z,101216.19
2018-10-16T07:36:07.624Z,101217.36
2018-10-16T07:38:37.422Z,101225.26
2018-10-16T07:41:07.147Z,101221.41
2018-10-16T07:43:36.926Z,101225.08
2018-10-16T07:46:06.741Z,101228.23
2018-10-16T07:48:36.705Z,101223.00
2018-10-16T07:51:06.512Z,101231.29
2018-10-16T07:53:36.320Z,101230.92
2018-10-16T07:56:06.336Z,101229.23
2018-10-16T07:58:36.077Z,101224.05
2018-10-16T08:01:06.017Z,101223.65
2018-10-16T08:03:38.846Z,101223.65
2018-10-16T08:06:08.616Z,101225.91
2018-10-16T08:08:38.323Z,101226.80
2018-10-16T08:11:08.045Z,101227.28
2018-10-16T08:13:37.771Z,101230.32
2018-10-16T08:16:08.895Z,101229.89
2018-10-16T08:18:41.686Z,101229.91
2018-10-16T08:21:11.406Z,101233.81
2018-10-16T08:23:41.191Z,101234.70
2018-10-16T08:26:11.073Z,101230.32
2018-10-16T08:28:41.890Z,101226.38
2018-10-16T08:31:11.766Z,101225.97
2018-10-16T08:33:41.506Z,101225.07
2018-10-16T08:36:11.317Z,101222.34
2018-10-16T08:38:52.518Z,101225.74
2018-10-16T08:41:29.565Z,101233.56
2018-10-16T08:44:22.005Z,101229.50
2018-10-16T08:47:08.521Z,101235.87
2018-10-16T08:49:54.883Z,101232.55
2018-10-16T08:52:26.323Z,101226.57
2018-10-16T08:54:56.737Z,101226.34
2018-10-16T08:57:28.767Z,101224.88
2018-10-16T08:59:58.460Z,101228.93
2018-10-16T09:02:28.338Z,101228.12
2018-10-16T09:04:58.302Z,101233.25
2018-10-16T09:07:28.057Z,101233.65
2018-10-16T09:09:59.704Z,101232.42
2018-10-16T09:12:29.448Z,101229.14
2018-10-16T09:14:59.204Z,101230.39
2018-10-16T09:17:28.885Z,101230.05
2018-10-16T09:19:58.867Z,101230.73
2018-10-16T09:22:28.795Z,101230.50
2018-10-16T09:24:58.581Z,101225.66
2018-10-16T09:29:52.817Z,101218.09
2018-10-16T09:32:23.624Z,101223.05
2018-10-16T09:34:53.625Z,101221.29
2018-10-16T09:37:23.435Z,101220.23
2018-10-16T09:39:53.039Z,101230.91
2018-10-16T09:42:22.994Z,101226.92
2018-10-16T09:44:52.924Z,101230.23
2018-10-16T09:47:22.756Z,101234.03
2018-10-16T09:49:52.457Z,101235.62
2018-10-16T09:52:22.127Z,101235.85
2018-10-16T09:54:52.037Z,101236.87
2018-10-16T09:57:21.799Z,101240.16
2018-10-16T09:59:51.598Z,101238.02
2018-10-16T10:02:21.446Z,101235.73
2018-10-16T10:04:51.135Z,101238.15
2018-10-16T10:07:20.966Z,101242.03
2018-10-16T10:09:50.719Z,101235.30
2018-10-16T10:12:20.546Z,101238.11
2018-10-16T10:14:50.456Z,101235.16
2018-10-16T10:17:20.114Z,101228.86
2018-10-16T10:19:50.197Z,101227.02
2018-10-16T10:22:20.016Z,101232.28
2018-10-16T10:24:49.739Z,101235.38
2018-10-16T10:27:19.490Z,101242.36
2018-10-16T10:29:51.083Z,101236.83
2018-10-16T10:32:20.839Z,101239.41
2018-10-16T10:34:50.636Z,101232.23
2018-10-16T10:37:26.120Z,101233.70
2018-10-16T10:39:57.430Z,101231.36
2018-10-16T10:42:27.329Z,101235.44
2018-10-16T10:44:57.075Z,101235.27
2018-10-16T10:47:26.852Z,101235.27
2018-10-16T10:49:56.728Z,101230.08
2018-10-16T10:52:26.604Z,101229.63
2018-10-16T10:54:57.360Z,101224.00
2018-10-16T10:57:27.253Z,101222.20
2018-10-16T10:59:57.058Z,101222.42
2018-10-16T11:02:26.868Z,101218.12
2018-10-16T11:04:56.534Z,101210.62
2018-10-16T11:07:26.619Z,101222.47
2018-10-16T11:09:56.453Z,101218.28
2018-10-16T11:12:26.115Z,101221.22
2018-10-16T11:14:56.244Z,101216.56
2018-10-16T11:17:25.986Z,101217.56
2018-10-16T11:19:55.840Z,101222.12
2018-10-16T11:22:25.648Z,101214.48
2018-10-16T11:24:55.391Z,101215.16
2018-10-16T11:27:25.170Z,101211.81
2018-10-16T11:29:54.924Z,101209.88
2018-10-16T11:32:24.616Z,101207.12
2018-10-16T11:34:55.118Z,101210.94
2018-10-16T11:37:24.893Z,101208.26
2018-10-16T11:39:54.798Z,101208.70
2018-10-16T11:42:24.565Z,101204.16
2018-10-16T11:44:54.318Z,101206.63
2018-10-16T11:47:24.111Z,101204.47
2018-10-16T11:49:54.068Z,101200.99
2018-10-16T11:52:23.930Z,101202.75
2018-10-16T11:54:53.763Z,101202.21
2018-10-16T11:57:23.515Z,101202.65
2018-10-16T11:59:53.385Z,101196.45
2018-10-16T12:02:23.256Z,101200.36
2018-10-16T12:04:53.003Z,101198.59
2018-10-16T12:07:22.854Z,101190.39
2018-10-16T12:09:52.696Z,101192.31
2018-10-16T12:12:22.461Z,101202.44
2018-10-16T12:14:52.169Z,101190.05
2018-10-16T12:19:28.981Z,101195.06
2018-10-16T12:21:58.689Z,101193.00
2018-10-16T12:24:28.440Z,101190.22
2018-10-16T12:26:58.274Z,101190.25
2018-10-16T12:29:28.021Z,101186.22
2018-10-16T12:31:58.397Z,101186.00
2018-10-16T12:34:28.634Z,101190.91
2018-10-16T12:36:59.647Z,101184.14
2018-10-16T12:39:33.616Z,101188.05
2018-10-16T12:42:05.084Z,101189.67
2018-10-16T12:44:35.378Z,101190.66
2018-10-16T12:47:06.474Z,101184.88
2018-10-16T12:49:37.241Z,101187.55
2018-10-16T12:52:07.453Z,101185.47
2018-10-16T12:54:37.415Z,101181.73
2018-10-16T12:57:07.961Z,101182.77
2018-10-16T12:59:39.556Z,101184.54
2018-10-16T13:02:10.194Z,101184.66
2018-10-16T13:04:39.849Z,101189.08
2018-10-16T13:07:30.736Z,101189.48
2018-10-16T13:10:09.157Z,101189.65
2018-10-16T13:15:20.702Z,101188.78
2018-10-16T13:18:08.104Z,101193.66
2018-10-16T13:20:38.939Z,101189.26
2018-10-16T13:23:12.709Z,101185.58
2018-10-16T13:25:42.551Z,101184.61
2018-10-16T13:28:12.744Z,101178.27
2018-10-16T13:30:42.523Z,101171.05
2018-10-16T13:33:12.356Z,101171.72
2018-10-16T13:35:42.116Z,101172.67
2018-10-16T13:40:52.179Z,101178.92
2018-10-16T13:43:21.968Z,101173.48
2018-10-16T13:45:55.027Z,101171.24
2018-10-16T13:48:24.733Z,101169.08
2018-10-16T13:50:55.505Z,101172.69
2018-10-16T13:53:27.348Z,101172.95
2018-10-16T13:55:58.029Z,101172.87
2018-10-16T13:58:28.920Z,101170.27
2018-10-16T14:00:58.628Z,101171.36
2018-10-16T14:03:28.437Z,101167.53
2018-10-16T14:05:58.546Z,101166.96
2018-10-16T14:08:28.270Z,101172.58
2018-10-16T14:10:58.782Z,101172.36
2018-10-16T14:13:29.455Z,101171.86
2018-10-16T14:16:01.623Z,101171.41
2018-10-16T14:18:31.496Z,101167.08
2018-10-16T14:21:01.278Z,101171.72
2018-10-16T14:23:31.907Z,101165.84
2018-10-16T14:26:01.670Z,101165.63
2018-10-16T14:28:31.449Z,101165.80
2018-10-16T14:31:01.174Z,101167.86
2018-10-16T14:33:31.373Z,101161.70
2018-10-16T14:36:01.125Z,101159.11
2018-10-16T14:38:31.010Z,101162.32
2018-10-16T14:41:00.843Z,101160.05
2018-10-16T14:43:30.825Z,101159.16
2018-10-16T14:46:01.336Z,101156.72
2018-10-16T14:48:31.280Z,101158.20
2018-10-16T14:51:00.970Z,101157.35
2018-10-16T14:53:30.697Z,101159.83
2018-10-16T14:56:00.488Z,101162.47
2018-10-16T14:58:30.225Z,101148.34
2018-10-16T15:01:01.179Z,101148.63
2018-10-16T15:03:31.802Z,101149.13
2018-10-16T15:06:03.091Z,101146.16
2018-10-16T15:08:32.906Z,101144.59
2018-10-16T15:11:02.759Z,101143.78
2018-10-16T15:13:32.479Z,101145.06
2018-10-16T15:16:02.312Z,101143.94
2018-10-16T15:18:31.981Z,101143.27
2018-10-16T15:21:01.727Z,101141.31
2018-10-16T15:23:31.497Z,101135.89
2018-10-16T15:26:01.263Z,101135.44
2018-10-16T15:28:31.013Z,101135.05
2018-10-16T15:31:00.787Z,101134.09
2018-10-16T15:33:30.903Z,101133.50
2018-10-16T15:36:02.508Z,101131.50
2018-10-16T15:38:32.319Z,101130.50
2018-10-16T15:41:02.258Z,101127.72
2018-10-16T15:43:31.945Z,101132.08
2018-10-16T15:46:03.165Z,101133.50
2018-10-16T15:48:32.948Z,101136.23
2018-10-16T15:51:03.901Z,101136.53
2018-10-16T15:53:34.711Z,101146.34
2018-10-16T15:56:05.475Z,101143.33
2018-10-16T15:58:37.789Z,101137.26
2018-10-16T16:01:08.999Z,101144.28
2018-10-16T16:03:38.946Z,101142.02
2018-10-16T16:06:09.156Z,101138.75
2018-10-16T16:08:39.043Z,101144.72
2018-10-16T16:11:08.809Z,101140.58
2018-10-16T16:13:38.687Z,101147.84
2018-10-16T16:16:09.568Z,101147.14
2018-10-16T16:18:39.876Z,101148.18
2018-10-16T16:21:10.390Z,101147.47
2018-10-16T16:23:40.180Z,101151.13
2018-10-16T16:26:10.013Z,101149.47
2018-10-16T16:28:39.838Z,101154.39
2018-10-16T16:31:10.658Z,101158.48
2018-10-16T16:33:40.415Z,101159.48
2018-10-16T16:36:10.293Z,101160.97
2018-10-16T16:38:39.998Z,101161.54
2018-10-16T16:41:09.892Z,101163.39
2018-10-16T16:43:39.737Z,101165.27
2018-10-16T16:46:09.809Z,101162.72
2018-10-16T16:48:39.427Z,101164.12
2018-10-16T16:51:09.190Z,101161.11
2018-10-16T16:53:38.964Z,101165.59
2018-10-16T16:56:08.820Z,101165.66
2018-10-16T16:58:38.558Z,101174.06
2018-10-16T17:01:08.417Z,101174.50
2018-10-16T17:03:38.255Z,101174.97
2018-10-16T17:06:08.178Z,101179.24
2018-10-16T17:08:38.015Z,101175.32
2018-10-16T17:11:07.877Z,101179.27
2018-10-16T17:13:37.727Z,101188.17
2018-10-16T17:16:07.610Z,101180.88
2018-10-16T17:18:37.403Z,101189.70
2018-10-16T17:21:07.150Z,101193.68
2018-10-16T17:23:40.006Z,101193.80
2018-10-16T17:26:09.975Z,101189.91
2018-10-16T17:28:41.167Z,101187.78
2018-10-16T17:31:10.956Z,101193.53
2018-10-16T17:33:41.417Z,101194.88
2018-10-16T17:36:13.667Z,101190.06
2018-10-16T17:38:43.528Z,101194.02
2018-10-16T17:41:13.280Z,101195.35
2018-10-16T17:43:43.469Z,101195.77
2018-10-16T17:46:13.794Z,101193.56
2018-10-16T17:48:44.003Z,101195.78
2018-10-16T17:51:13.893Z,101194.92
2018-10-16T17:53:44.407Z,101187.49
2018-10-16T17:56:14.177Z,101191.42
2018-10-16T17:58:44.952Z,101187.08
2018-10-16T18:01:14.766Z,101186.63
2018-10-16T18:03:44.506Z,101191.88
2018-10-16T18:06:15.050Z,101196.27
2018-10-16T18:08:47.628Z,101197.58
2018-10-16T18:11:18.256Z,101198.02
2018-10-16T18:13:48.030Z,101206.76
2018-10-16T18:16:17.806Z,101211.12
2018-10-16T18:18:47.614Z,101217.19
2018-10-16T18:21:18.117Z,101224.08
2018-10-16T18:23:50.023Z,101217.00
2018-10-16T18:26:20.023Z,101221.36
2018-10-16T18:28:49.768Z,101224.78
2018-10-16T18:31:20.585Z,101222.23
2018-10-16T18:33:50.543Z,101223.19
2018-10-16T18:36:21.228Z,101221.04
2018-10-16T18:38:51.613Z,101220.19
2018-10-16T18:41:22.890Z,101225.45
2018-10-16T18:43:52.724Z,101224.61
2018-10-16T18:46:22.602Z,101220.23
2018-10-16T18:48:52.395Z,101218.52
2018-10-16T18:51:22.236Z,101233.83
2018-10-16T18:53:52.261Z,101233.84
2018-10-16T18:56:22.114Z,101239.95
2018-10-16T18:58:51.973Z,101241.70
2018-10-16T19:01:21.726Z,101244.73
2018-10-16T19:03:52.043Z,101240.38
2018-10-16T19:06:21.828Z,101241.67
2018-10-16T19:08:51.634Z,101240.37
2018-10-16T19:11:21.431Z,101238.17
2018-10-16T19:13:51.495Z,101243.41
2018-10-16T19:16:21.211Z,101241.25
2018-10-16T19:18:51.126Z,101248.21
2018-10-16T19:21:20.903Z,101247.80
2018-10-16T19:23:50.669Z,101250.85
2018-10-16T19:26:20.465Z,101247.78
2018-10-16T19:28:50.237Z,101259.59
2018-10-16T19:31:20.269Z,101258.69
2018-10-16T19:33:50.094Z,101258.69
2018-10-16T19:36:19.919Z,101256.52
2018-10-16T19:38:49.742Z,101259.59
2018-10-16T19:41:19.641Z,101259.59
2018-10-16T19:43:49.406Z,101257.83
2018-10-16T19:46:19.281Z,101258.27
2018-10-16T19:48:49.288Z,101257.38
2018-10-16T19:51:19.133Z,101260.41
2018-10-16T19:53:49.240Z,101256.50
2018-10-16T19:56:19.174Z,101258.64
2018-10-16T19:58:48.938Z,101255.59
2018-10-16T20:01:18.641Z,101260.80
2018-10-16T20:03:48.421Z,101262.98
2018-10-16T20:06:18.287Z,101265.60
2018-10-16T20:08:48.295Z,101263.44
2018-10-16T20:11:18.161Z,101266.05
2018-10-16T20:13:47.902Z,101270.84
2018-10-16T20:18:57.360Z,101279.57
2018-10-16T20:21:29.848Z,101283.51
2018-10-16T20:23:59.707Z,101284.39
2018-10-16T20:26:29.678Z,101290.48
2018-10-16T20:29:00.137Z,101285.69
2018-10-16T20:31:30.646Z,101287.44
2018-10-16T20:34:00.913Z,101282.22
2018-10-16T20:36:31.875Z,101283.53
2018-10-16T20:39:01.722Z,101276.52
2018-10-16T20:41:33.018Z,101275.16
2018-10-16T20:44:02.780Z,101282.56
2018-10-16T20:46:32.477Z,101276.41
2018-10-16T20:49:03.999Z,101275.95
2018-10-16T20:51:34.058Z,101277.20
2018-10-16T20:54:04.156Z,101277.64
2018-10-16T20:56:34.643Z,101273.70
2018-10-16T20:59:04.447Z,101279.41
2018-10-16T21:01:34.385Z,101279.84
2018-10-16T21:04:06.516Z,101277.71
2018-10-16T21:06:39.195Z,101279.88
2018-10-16T21:09:10.148Z,101278.97
2018-10-16T21:11:39.887Z,101278.52
2018-10-16T21:14:10.255Z,101281.08
2018-10-16T21:16:41.022Z,101276.70
2018-10-16T21:19:10.962Z,101277.94
2018-10-16T21:21:42.869Z,101279.62
2018-10-16T21:24:12.789Z,101275.67
2018-10-16T21:26:46.282Z,101276.55
2018-10-16T21:29:22.909Z,101272.21
2018-10-16T21:31:54.341Z,101273.56
2018-10-16T21:34:24.286Z,101267.89
2018-10-16T21:37:00.383Z,101268.31
2018-10-16T21:39:31.995Z,101267.78
2018-10-16T21:42:03.325Z,101262.57
2018-10-16T21:44:33.340Z,101267.85
2018-10-16T21:47:03.601Z,101263.83
2018-10-16T21:49:33.428Z,101269.42
2018-10-16T21:52:03.320Z,101264.98
2018-10-16T21:54:33.143Z,101263.55
2018-10-16T21:57:02.820Z,101261.28
2018-10-16T21:59:34.271Z,101271.67
2018-10-16T22:02:09.079Z,101270.70
2018-10-16T22:04:40.732Z,101264.53
2018-10-16T22:07:11.082Z,101268.81
2018-10-16T22:09:40.875Z,101263.13
2018-10-16T22:12:10.678Z,101261.42
2018-10-16T22:14:40.547Z,101258.81
2018-10-16T22:17:10.472Z,101255.73
2018-10-16T22:19:40.238Z,101255.22
2018-10-16T22:22:10.097Z,101249.12
2018-10-16T22:24:39.904Z,101247.34
2018-10-16T22:27:09.709Z,101244.80
2018-10-16T22:29:39.634Z,101243.06
2018-10-16T22:32:09.449Z,101242.09
2018-10-16T22:34:39.209Z,101237.37
2018-10-16T22:37:09.041Z,101241.17
2018-10-16T22:39:38.658Z,101241.58
2018-10-16T22:42:08.595Z,101243.70
2018-10-16T22:44:38.336Z,101244.70
2018-10-16T22:47:08.217Z,101239.88
2018-10-16T22:49:37.865Z,101243.75
2018-10-16T22:52:07.986Z,101240.23
2018-10-16T22:54:37.836Z,101245.89
2018-10-16T22:57:07.577Z,101241.50
2018-10-16T22:59:37.354Z,101243.70
2018-10-16T23:02:07.450Z,101243.27
2018-10-16T23:04:37.228Z,101240.31
2018-10-16T23:07:07.221Z,101239.98
2018-10-16T23:09:36.873Z,101237.45
2018-10-16T23:12:07.762Z,101235.70
2018-10-16T23:14:37.497Z,101235.77
2018-10-16T23:17:07.362Z,101227.17
2018-10-16T23:19:37.182Z,101225.52
2018-10-16T23:22:06.890Z,101227.38
2018-10-16T23:24:36.676Z,101229.00
2018-10-16T23:27:06.692Z,101228.91
2018-10-16T23:29:36.433Z,101227.70
2018-10-16T23:32:06.568Z,101228.25
2018-10-16T23:34:36.297Z,101221.92
2018-10-16T23:37:06.290Z,101218.92
2018-10-16T23:39:35.937Z,101217.59
2018-10-16T23:42:05.939Z,101221.54
2018-10-16T23:44:35.689Z,101218.01
2018-10-16T23:47:05.559Z,101221.92
2018-10-16T23:49:35.307Z,101219.27
2018-10-16T23:52:05.238Z,101214.86
2018-10-16T23:54:34.949Z,101222.64
2018-10-16T23:57:04.775Z,101226.02
2018-10-16T23:59:34.651Z,101222.00
